sensor_id;sensor_type;location;lat;lon;timestamp;P1;durP1;ratioP1;P2;durP2;ratioP2
49029;SDS011;43337;52.070;4.508;2024-02-15T00:00:20;14.30;;;3.40;;
49029;SDS011;43337;52.070;4.508;2024-02-15T00:02:46;20.65;;;3.45;;
49029;SDS011;43337;52.070;4.508;2024-02-15T00:05:12;11.63;;;2.97;;
49029;SDS011;43337;52.070;4.508;2024-02-15T00:07:39;9.73;;;3.33;;
49029;SDS011;43337;52.070;4.508;2024-02-15T00:10:05;13.73;;;4.00;;
49029;SDS011;43337;52.070;4.508;2024-02-15T00:12:31;8.48;;;3.20;;
49029;SDS011;43337;52.070;4.508;2024-02-15T00:14:56;11.45;;;3.75;;
49029;SDS011;43337;52.070;4.508;2024-02-15T00:17:23;12.48;;;3.75;;
49029;SDS011;43337;52.070;4.508;2024-02-15T00:19:52;10.40;;;3.53;;
49029;SDS011;43337;52.070;4.508;2024-02-15T00:22:17;15.60;;;5.05;;
49029;SDS011;43337;52.070;4.508;2024-02-15T00:24:44;13.10;;;3.67;;
49029;SDS011;43337;52.070;4.508;2024-02-15T00:27:10;12.98;;;4.40;;
49029;SDS011;43337;52.070;4.508;2024-02-15T00:29:36;13.27;;;4.72;;
49029;SDS011;43337;52.070;4.508;2024-02-15T00:32:01;10.65;;;4.47;;
49029;SDS011;43337;52.070;4.508;2024-02-15T00:34:28;17.45;;;6.10;;
49029;SDS011;43337;52.070;4.508;2024-02-15T00:36:54;16.85;;;5.57;;
49029;SDS011;43337;52.070;4.508;2024-02-15T00:39:19;18.52;;;5.80;;
49029;SDS011;43337;52.070;4.508;2024-02-15T00:41:45;16.80;;;7.22;;
49029;SDS011;43337;52.070;4.508;2024-02-15T00:44:10;19.08;;;5.45;;
49029;SDS011;43337;52.070;4.508;2024-02-15T00:46:36;10.85;;;4.00;;
49029;SDS011;43337;52.070;4.508;2024-02-15T00:49:03;16.48;;;5.03;;
49029;SDS011;43337;52.070;4.508;2024-02-15T00:51:31;11.02;;;4.65;;
49029;SDS011;43337;52.070;4.508;2024-02-15T00:53:56;12.75;;;4.28;;
49029;SDS011;43337;52.070;4.508;2024-02-15T00:56:22;13.65;;;3.72;;
49029;SDS011;43337;52.070;4.508;2024-02-15T00:58:49;14.15;;;5.45;;
49029;SDS011;43337;52.070;4.508;2024-02-15T01:01:15;14.38;;;4.80;;
49029;SDS011;43337;52.070;4.508;2024-02-15T01:03:40;13.13;;;5.30;;
49029;SDS011;43337;52.070;4.508;2024-02-15T01:06:06;16.67;;;5.53;;
49029;SDS011;43337;52.070;4.508;2024-02-15T01:08:31;16.05;;;5.43;;
49029;SDS011;43337;52.070;4.508;2024-02-15T01:10:57;18.17;;;6.70;;
49029;SDS011;43337;52.070;4.508;2024-02-15T01:13:23;13.50;;;5.05;;
49029;SDS011;43337;52.070;4.508;2024-02-15T01:15:48;15.82;;;5.72;;
49029;SDS011;43337;52.070;4.508;2024-02-15T01:18:14;16.20;;;6.43;;
49029;SDS011;43337;52.070;4.508;2024-02-15T01:20:39;14.32;;;7.10;;
49029;SDS011;43337;52.070;4.508;2024-02-15T01:23:05;13.82;;;6.10;;
49029;SDS011;43337;52.070;4.508;2024-02-15T01:25:32;11.77;;;6.32;;
49029;SDS011;43337;52.070;4.508;2024-02-15T01:27:58;13.35;;;5.95;;
49029;SDS011;43337;52.070;4.508;2024-02-15T01:30:24;17.48;;;5.95;;
49029;SDS011;43337;52.070;4.508;2024-02-15T01:32:49;13.95;;;5.05;;
49029;SDS011;43337;52.070;4.508;2024-02-15T01:35:14;16.00;;;5.70;;
49029;SDS011;43337;52.070;4.508;2024-02-15T01:37:40;19.45;;;6.30;;
49029;SDS011;43337;52.070;4.508;2024-02-15T01:40:06;16.92;;;6.05;;
49029;SDS011;43337;52.070;4.508;2024-02-15T01:42:32;14.55;;;6.28;;
49029;SDS011;43337;52.070;4.508;2024-02-15T01:44:57;21.80;;;7.75;;
49029;SDS011;43337;52.070;4.508;2024-02-15T01:47:23;13.68;;;6.60;;
49029;SDS011;43337;52.070;4.508;2024-02-15T01:49:49;14.18;;;5.85;;
49029;SDS011;43337;52.070;4.508;2024-02-15T01:52:17;18.55;;;6.15;;
49029;SDS011;43337;52.070;4.508;2024-02-15T01:54:43;16.95;;;6.53;;
49029;SDS011;43337;52.070;4.508;2024-02-15T01:57:10;12.60;;;5.85;;
49029;SDS011;43337;52.070;4.508;2024-02-15T01:59:36;17.33;;;6.25;;
49029;SDS011;43337;52.070;4.508;2024-02-15T02:02:02;18.60;;;5.72;;
49029;SDS011;43337;52.070;4.508;2024-02-15T02:04:29;14.13;;;5.90;;
49029;SDS011;43337;52.070;4.508;2024-02-15T02:06:56;14.05;;;5.35;;
49029;SDS011;43337;52.070;4.508;2024-02-15T02:09:23;18.25;;;6.18;;
49029;SDS011;43337;52.070;4.508;2024-02-15T02:11:49;15.20;;;5.70;;
49029;SDS011;43337;52.070;4.508;2024-02-15T02:14:15;15.32;;;5.45;;
49029;SDS011;43337;52.070;4.508;2024-02-15T02:16:41;11.48;;;4.80;;
49029;SDS011;43337;52.070;4.508;2024-02-15T02:19:06;12.25;;;4.63;;
49029;SDS011;43337;52.070;4.508;2024-02-15T02:21:34;12.00;;;4.88;;
49029;SDS011;43337;52.070;4.508;2024-02-15T02:24:00;15.30;;;5.13;;
49029;SDS011;43337;52.070;4.508;2024-02-15T02:26:28;12.77;;;4.32;;
49029;SDS011;43337;52.070;4.508;2024-02-15T02:28:54;13.30;;;4.82;;
49029;SDS011;43337;52.070;4.508;2024-02-15T02:31:20;16.23;;;4.95;;
49029;SDS011;43337;52.070;4.508;2024-02-15T02:33:52;17.30;;;5.07;;
49029;SDS011;43337;52.070;4.508;2024-02-15T02:36:19;15.43;;;4.90;;
49029;SDS011;43337;52.070;4.508;2024-02-15T02:38:45;12.18;;;4.60;;
49029;SDS011;43337;52.070;4.508;2024-02-15T02:41:15;16.98;;;5.32;;
49029;SDS011;43337;52.070;4.508;2024-02-15T02:43:41;12.57;;;4.78;;
49029;SDS011;43337;52.070;4.508;2024-02-15T02:46:11;12.10;;;4.35;;
49029;SDS011;43337;52.070;4.508;2024-02-15T02:48:37;17.10;;;4.75;;
49029;SDS011;43337;52.070;4.508;2024-02-15T02:51:04;18.33;;;4.93;;
49029;SDS011;43337;52.070;4.508;2024-02-15T02:53:31;11.68;;;4.30;;
49029;SDS011;43337;52.070;4.508;2024-02-15T02:55:56;17.92;;;4.30;;
49029;SDS011;43337;52.070;4.508;2024-02-15T02:58:22;10.30;;;3.80;;
49029;SDS011;43337;52.070;4.508;2024-02-15T03:00:50;11.02;;;4.53;;
49029;SDS011;43337;52.070;4.508;2024-02-15T03:03:16;14.40;;;4.20;;
49029;SDS011;43337;52.070;4.508;2024-02-15T03:05:44;11.35;;;5.28;;
49029;SDS011;43337;52.070;4.508;2024-02-15T03:08:12;15.55;;;4.65;;
49029;SDS011;43337;52.070;4.508;2024-02-15T03:10:42;15.10;;;4.18;;
49029;SDS011;43337;52.070;4.508;2024-02-15T03:13:08;13.13;;;5.05;;
49029;SDS011;43337;52.070;4.508;2024-02-15T03:15:34;11.63;;;4.38;;
49029;SDS011;43337;52.070;4.508;2024-02-15T03:18:04;13.38;;;4.53;;
49029;SDS011;43337;52.070;4.508;2024-02-15T03:20:38;8.85;;;4.25;;
49029;SDS011;43337;52.070;4.508;2024-02-15T03:23:08;16.05;;;4.65;;
49029;SDS011;43337;52.070;4.508;2024-02-15T03:25:34;17.75;;;4.82;;
49029;SDS011;43337;52.070;4.508;2024-02-15T03:28:02;18.73;;;5.25;;
49029;SDS011;43337;52.070;4.508;2024-02-15T03:30:33;17.40;;;4.47;;
49029;SDS011;43337;52.070;4.508;2024-02-15T03:33:02;14.73;;;4.75;;
49029;SDS011;43337;52.070;4.508;2024-02-15T03:35:31;17.55;;;4.50;;
49029;SDS011;43337;52.070;4.508;2024-02-15T03:37:57;15.27;;;4.80;;
49029;SDS011;43337;52.070;4.508;2024-02-15T03:40:23;14.57;;;4.55;;
49029;SDS011;43337;52.070;4.508;2024-02-15T03:42:55;20.30;;;5.30;;
49029;SDS011;43337;52.070;4.508;2024-02-15T03:45:21;11.95;;;4.85;;
49029;SDS011;43337;52.070;4.508;2024-02-15T03:47:49;11.93;;;4.95;;
49029;SDS011;43337;52.070;4.508;2024-02-15T03:50:15;12.93;;;6.00;;
49029;SDS011;43337;52.070;4.508;2024-02-15T03:52:40;10.45;;;5.55;;
49029;SDS011;43337;52.070;4.508;2024-02-15T03:55:06;20.30;;;6.70;;
49029;SDS011;43337;52.070;4.508;2024-02-15T03:57:35;16.80;;;7.68;;
49029;SDS011;43337;52.070;4.508;2024-02-15T04:00:05;18.67;;;6.35;;
49029;SDS011;43337;52.070;4.508;2024-02-15T04:02:33;18.00;;;6.40;;
49029;SDS011;43337;52.070;4.508;2024-02-15T04:05:00;15.88;;;6.55;;
49029;SDS011;43337;52.070;4.508;2024-02-15T04:07:30;15.32;;;6.20;;
49029;SDS011;43337;52.070;4.508;2024-02-15T04:09:55;12.90;;;6.03;;
49029;SDS011;43337;52.070;4.508;2024-02-15T04:12:21;16.67;;;6.38;;
49029;SDS011;43337;52.070;4.508;2024-02-15T04:14:47;12.98;;;6.47;;
49029;SDS011;43337;52.070;4.508;2024-02-15T04:17:13;15.32;;;6.22;;
49029;SDS011;43337;52.070;4.508;2024-02-15T04:19:43;20.90;;;5.80;;
49029;SDS011;43337;52.070;4.508;2024-02-15T04:22:09;18.63;;;7.25;;
49029;SDS011;43337;52.070;4.508;2024-02-15T04:24:35;17.38;;;6.50;;
49029;SDS011;43337;52.070;4.508;2024-02-15T04:27:04;11.45;;;6.30;;
49029;SDS011;43337;52.070;4.508;2024-02-15T04:29:32;14.05;;;6.00;;
49029;SDS011;43337;52.070;4.508;2024-02-15T04:31:58;11.45;;;5.78;;
49029;SDS011;43337;52.070;4.508;2024-02-15T04:34:23;11.15;;;5.80;;
49029;SDS011;43337;52.070;4.508;2024-02-15T04:36:49;15.40;;;6.03;;
49029;SDS011;43337;52.070;4.508;2024-02-15T04:39:18;16.52;;;6.38;;
49029;SDS011;43337;52.070;4.508;2024-02-15T04:41:52;12.63;;;5.97;;
49029;SDS011;43337;52.070;4.508;2024-02-15T04:44:18;13.25;;;7.03;;
49029;SDS011;43337;52.070;4.508;2024-02-15T04:46:45;13.10;;;6.78;;
49029;SDS011;43337;52.070;4.508;2024-02-15T04:49:14;16.27;;;8.40;;
49029;SDS011;43337;52.070;4.508;2024-02-15T04:51:40;14.85;;;7.28;;
49029;SDS011;43337;52.070;4.508;2024-02-15T04:54:08;18.13;;;8.80;;
49029;SDS011;43337;52.070;4.508;2024-02-15T04:56:38;18.77;;;8.65;;
49029;SDS011;43337;52.070;4.508;2024-02-15T04:59:04;17.85;;;9.10;;
49029;SDS011;43337;52.070;4.508;2024-02-15T05:01:34;16.65;;;8.68;;
49029;SDS011;43337;52.070;4.508;2024-02-15T05:04:00;22.35;;;9.00;;
49029;SDS011;43337;52.070;4.508;2024-02-15T05:06:31;16.38;;;8.50;;
49029;SDS011;43337;52.070;4.508;2024-02-15T05:08:57;23.98;;;9.85;;
49029;SDS011;43337;52.070;4.508;2024-02-15T05:11:25;23.15;;;9.85;;
49029;SDS011;43337;52.070;4.508;2024-02-15T05:13:50;21.67;;;9.13;;
49029;SDS011;43337;52.070;4.508;2024-02-15T05:16:16;26.17;;;10.20;;
49029;SDS011;43337;52.070;4.508;2024-02-15T05:18:41;24.33;;;8.38;;
49029;SDS011;43337;52.070;4.508;2024-02-15T05:21:07;24.75;;;9.35;;
49029;SDS011;43337;52.070;4.508;2024-02-15T05:23:36;25.60;;;9.52;;
49029;SDS011;43337;52.070;4.508;2024-02-15T05:26:03;20.02;;;9.38;;
49029;SDS011;43337;52.070;4.508;2024-02-15T05:28:29;21.27;;;8.82;;
49029;SDS011;43337;52.070;4.508;2024-02-15T05:33:48;22.77;;;9.20;;
49029;SDS011;43337;52.070;4.508;2024-02-15T05:36:15;22.45;;;8.88;;
49029;SDS011;43337;52.070;4.508;2024-02-15T05:38:41;24.17;;;8.90;;
49029;SDS011;43337;52.070;4.508;2024-02-15T05:41:10;18.83;;;8.90;;
49029;SDS011;43337;52.070;4.508;2024-02-15T05:43:36;20.52;;;8.75;;
49029;SDS011;43337;52.070;4.508;2024-02-15T05:46:04;22.05;;;8.88;;
49029;SDS011;43337;52.070;4.508;2024-02-15T05:48:31;23.75;;;7.80;;
49029;SDS011;43337;52.070;4.508;2024-02-15T05:51:00;19.50;;;8.82;;
49029;SDS011;43337;52.070;4.508;2024-02-15T05:53:26;21.05;;;8.10;;
49029;SDS011;43337;52.070;4.508;2024-02-15T05:55:51;18.45;;;8.18;;
49029;SDS011;43337;52.070;4.508;2024-02-15T05:58:17;23.45;;;8.85;;
49029;SDS011;43337;52.070;4.508;2024-02-15T06:00:43;21.38;;;8.43;;
49029;SDS011;43337;52.070;4.508;2024-02-15T06:03:12;22.20;;;8.40;;
49029;SDS011;43337;52.070;4.508;2024-02-15T06:05:37;19.27;;;8.45;;
49029;SDS011;43337;52.070;4.508;2024-02-15T06:08:03;16.95;;;7.95;;
49029;SDS011;43337;52.070;4.508;2024-02-15T06:10:29;18.83;;;7.50;;
49029;SDS011;43337;52.070;4.508;2024-02-15T06:12:56;23.70;;;10.35;;
49029;SDS011;43337;52.070;4.508;2024-02-15T06:15:22;16.23;;;7.13;;
49029;SDS011;43337;52.070;4.508;2024-02-15T06:17:48;15.35;;;6.95;;
49029;SDS011;43337;52.070;4.508;2024-02-15T06:20:14;16.55;;;7.00;;
49029;SDS011;43337;52.070;4.508;2024-02-15T06:22:40;14.57;;;6.15;;
49029;SDS011;43337;52.070;4.508;2024-02-15T06:25:06;12.90;;;6.30;;
49029;SDS011;43337;52.070;4.508;2024-02-15T06:27:31;11.75;;;6.05;;
49029;SDS011;43337;52.070;4.508;2024-02-15T06:29:57;15.80;;;7.13;;
49029;SDS011;43337;52.070;4.508;2024-02-15T06:32:41;10.07;;;4.80;;
49029;SDS011;43337;52.070;4.508;2024-02-15T06:35:25;13.63;;;5.17;;
49029;SDS011;43337;52.070;4.508;2024-02-15T06:38:09;14.20;;;5.57;;
49029;SDS011;43337;52.070;4.508;2024-02-15T06:40:53;11.20;;;5.80;;
49029;SDS011;43337;52.070;4.508;2024-02-15T06:43:19;17.08;;;8.05;;
49029;SDS011;43337;52.070;4.508;2024-02-15T06:45:44;13.43;;;5.70;;
49029;SDS011;43337;52.070;4.508;2024-02-15T06:48:11;10.30;;;6.15;;
49029;SDS011;43337;52.070;4.508;2024-02-15T06:50:37;12.63;;;6.53;;
49029;SDS011;43337;52.070;4.508;2024-02-15T06:53:03;11.13;;;5.55;;
49029;SDS011;43337;52.070;4.508;2024-02-15T06:55:28;15.77;;;6.40;;
49029;SDS011;43337;52.070;4.508;2024-02-15T06:57:53;12.32;;;6.43;;
49029;SDS011;43337;52.070;4.508;2024-02-15T07:00:20;14.57;;;7.20;;
49029;SDS011;43337;52.070;4.508;2024-02-15T07:02:45;13.32;;;6.90;;
49029;SDS011;43337;52.070;4.508;2024-02-15T07:05:12;15.30;;;7.05;;
49029;SDS011;43337;52.070;4.508;2024-02-15T07:07:38;11.60;;;6.60;;
49029;SDS011;43337;52.070;4.508;2024-02-15T07:10:04;14.18;;;7.88;;
49029;SDS011;43337;52.070;4.508;2024-02-15T07:12:30;16.88;;;8.00;;
49029;SDS011;43337;52.070;4.508;2024-02-15T07:14:57;17.52;;;8.65;;
49029;SDS011;43337;52.070;4.508;2024-02-15T07:17:22;20.30;;;10.43;;
49029;SDS011;43337;52.070;4.508;2024-02-15T07:19:48;19.13;;;8.13;;
49029;SDS011;43337;52.070;4.508;2024-02-15T07:22:17;13.55;;;7.13;;
49029;SDS011;43337;52.070;4.508;2024-02-15T07:24:43;15.73;;;7.50;;
49029;SDS011;43337;52.070;4.508;2024-02-15T07:27:08;20.75;;;7.63;;
49029;SDS011;43337;52.070;4.508;2024-02-15T07:29:34;26.63;;;12.63;;
49029;SDS011;43337;52.070;4.508;2024-02-15T07:32:02;17.35;;;7.68;;
49029;SDS011;43337;52.070;4.508;2024-02-15T07:34:29;18.42;;;9.50;;
49029;SDS011;43337;52.070;4.508;2024-02-15T07:36:55;20.58;;;9.40;;
49029;SDS011;43337;52.070;4.508;2024-02-15T07:39:24;19.17;;;9.13;;
49029;SDS011;43337;52.070;4.508;2024-02-15T07:41:52;18.75;;;8.90;;
49029;SDS011;43337;52.070;4.508;2024-02-15T07:44:18;19.17;;;9.48;;
49029;SDS011;43337;52.070;4.508;2024-02-15T07:46:43;18.70;;;8.90;;
49029;SDS011;43337;52.070;4.508;2024-02-15T07:49:10;24.17;;;10.25;;
49029;SDS011;43337;52.070;4.508;2024-02-15T07:51:36;18.90;;;7.13;;
49029;SDS011;43337;52.070;4.508;2024-02-15T07:54:02;19.95;;;8.90;;
49029;SDS011;43337;52.070;4.508;2024-02-15T07:56:28;15.82;;;7.78;;
49029;SDS011;43337;52.070;4.508;2024-02-15T07:58:54;13.85;;;6.57;;
49029;SDS011;43337;52.070;4.508;2024-02-15T08:01:19;16.35;;;6.43;;
49029;SDS011;43337;52.070;4.508;2024-02-15T08:03:47;16.08;;;6.72;;
49029;SDS011;43337;52.070;4.508;2024-02-15T08:06:13;16.38;;;6.90;;
49029;SDS011;43337;52.070;4.508;2024-02-15T08:08:40;16.27;;;6.07;;
49029;SDS011;43337;52.070;4.508;2024-02-15T08:11:07;16.67;;;6.43;;
49029;SDS011;43337;52.070;4.508;2024-02-15T08:13:51;16.17;;;6.50;;
49029;SDS011;43337;52.070;4.508;2024-02-15T08:16:20;12.43;;;5.72;;
49029;SDS011;43337;52.070;4.508;2024-02-15T08:18:49;18.02;;;5.90;;
49029;SDS011;43337;52.070;4.508;2024-02-15T08:21:24;16.08;;;6.30;;
49029;SDS011;43337;52.070;4.508;2024-02-15T08:24:01;14.88;;;5.95;;
49029;SDS011;43337;52.070;4.508;2024-02-15T08:26:36;13.25;;;5.68;;
49029;SDS011;43337;52.070;4.508;2024-02-15T08:29:03;15.93;;;6.60;;
49029;SDS011;43337;52.070;4.508;2024-02-15T08:31:29;14.75;;;6.45;;
49029;SDS011;43337;52.070;4.508;2024-02-15T08:33:59;15.30;;;6.75;;
49029;SDS011;43337;52.070;4.508;2024-02-15T08:36:25;16.23;;;6.72;;
49029;SDS011;43337;52.070;4.508;2024-02-15T08:38:51;17.23;;;6.65;;
49029;SDS011;43337;52.070;4.508;2024-02-15T08:41:16;16.42;;;6.88;;
49029;SDS011;43337;52.070;4.508;2024-02-15T08:43:46;15.65;;;6.90;;
49029;SDS011;43337;52.070;4.508;2024-02-15T08:46:13;17.88;;;7.88;;
49029;SDS011;43337;52.070;4.508;2024-02-15T08:48:39;14.45;;;7.25;;
49029;SDS011;43337;52.070;4.508;2024-02-15T08:51:04;17.67;;;6.88;;
49029;SDS011;43337;52.070;4.508;2024-02-15T08:53:31;20.33;;;7.50;;
49029;SDS011;43337;52.070;4.508;2024-02-15T08:55:57;17.77;;;7.30;;
49029;SDS011;43337;52.070;4.508;2024-02-15T08:58:22;19.88;;;7.53;;
49029;SDS011;43337;52.070;4.508;2024-02-15T09:00:47;14.88;;;7.32;;
49029;SDS011;43337;52.070;4.508;2024-02-15T09:03:13;19.10;;;7.63;;
49029;SDS011;43337;52.070;4.508;2024-02-15T09:05:39;26.98;;;9.50;;
49029;SDS011;43337;52.070;4.508;2024-02-15T09:08:05;22.27;;;7.85;;
49029;SDS011;43337;52.070;4.508;2024-02-15T09:10:31;22.48;;;7.43;;
49029;SDS011;43337;52.070;4.508;2024-02-15T09:12:56;17.65;;;7.45;;
49029;SDS011;43337;52.070;4.508;2024-02-15T09:15:22;18.48;;;7.30;;
49029;SDS011;43337;52.070;4.508;2024-02-15T09:17:48;17.63;;;6.80;;
49029;SDS011;43337;52.070;4.508;2024-02-15T09:20:14;19.08;;;6.65;;
49029;SDS011;43337;52.070;4.508;2024-02-15T09:22:46;20.35;;;6.40;;
49029;SDS011;43337;52.070;4.508;2024-02-15T09:25:13;20.23;;;7.72;;
49029;SDS011;43337;52.070;4.508;2024-02-15T09:27:42;15.10;;;6.35;;
49029;SDS011;43337;52.070;4.508;2024-02-15T09:30:08;14.07;;;5.75;;
49029;SDS011;43337;52.070;4.508;2024-02-15T09:32:35;17.60;;;6.22;;
49029;SDS011;43337;52.070;4.508;2024-02-15T09:35:01;17.23;;;6.18;;
49029;SDS011;43337;52.070;4.508;2024-02-15T09:37:27;15.88;;;7.38;;
49029;SDS011;43337;52.070;4.508;2024-02-15T09:39:53;15.25;;;6.43;;
49029;SDS011;43337;52.070;4.508;2024-02-15T09:42:21;17.73;;;7.00;;
49029;SDS011;43337;52.070;4.508;2024-02-15T09:44:47;20.67;;;6.80;;
49029;SDS011;43337;52.070;4.508;2024-02-15T09:47:12;14.32;;;6.68;;
49029;SDS011;43337;52.070;4.508;2024-02-15T09:49:40;15.32;;;6.68;;
49029;SDS011;43337;52.070;4.508;2024-02-15T09:52:06;16.42;;;7.18;;
49029;SDS011;43337;52.070;4.508;2024-02-15T09:54:41;15.02;;;7.18;;
49029;SDS011;43337;52.070;4.508;2024-02-15T09:57:10;19.77;;;7.72;;
49029;SDS011;43337;52.070;4.508;2024-02-15T09:59:36;15.13;;;6.93;;
49029;SDS011;43337;52.070;4.508;2024-02-15T10:02:03;18.08;;;6.85;;
49029;SDS011;43337;52.070;4.508;2024-02-15T10:04:28;15.02;;;7.03;;
49029;SDS011;43337;52.070;4.508;2024-02-15T10:06:54;13.82;;;6.13;;
49029;SDS011;43337;52.070;4.508;2024-02-15T10:09:23;19.50;;;6.90;;
49029;SDS011;43337;52.070;4.508;2024-02-15T10:11:54;18.40;;;6.68;;
49029;SDS011;43337;52.070;4.508;2024-02-15T10:14:21;12.77;;;5.75;;
49029;SDS011;43337;52.070;4.508;2024-02-15T10:16:46;14.57;;;5.45;;
49029;SDS011;43337;52.070;4.508;2024-02-15T10:19:14;18.75;;;6.15;;
49029;SDS011;43337;52.070;4.508;2024-02-15T10:21:40;11.52;;;5.97;;
49029;SDS011;43337;52.070;4.508;2024-02-15T10:24:06;14.43;;;6.03;;
49029;SDS011;43337;52.070;4.508;2024-02-15T10:26:33;14.63;;;5.78;;
49029;SDS011;43337;52.070;4.508;2024-02-15T10:29:09;17.20;;;6.80;;
49029;SDS011;43337;52.070;4.508;2024-02-15T10:31:36;13.93;;;6.18;;
49029;SDS011;43337;52.070;4.508;2024-02-15T10:34:04;14.70;;;6.53;;
49029;SDS011;43337;52.070;4.508;2024-02-15T10:36:30;16.67;;;6.63;;
49029;SDS011;43337;52.070;4.508;2024-02-15T10:39:14;12.02;;;5.97;;
49029;SDS011;43337;52.070;4.508;2024-02-15T10:41:45;15.00;;;6.32;;
49029;SDS011;43337;52.070;4.508;2024-02-15T10:44:20;16.50;;;6.38;;
49029;SDS011;43337;52.070;4.508;2024-02-15T10:46:47;20.42;;;6.82;;
49029;SDS011;43337;52.070;4.508;2024-02-15T10:49:19;15.90;;;7.10;;
49029;SDS011;43337;52.070;4.508;2024-02-15T10:51:48;12.80;;;5.88;;
49029;SDS011;43337;52.070;4.508;2024-02-15T10:54:19;13.88;;;6.03;;
49029;SDS011;43337;52.070;4.508;2024-02-15T10:57:09;12.45;;;5.28;;
49029;SDS011;43337;52.070;4.508;2024-02-15T10:59:37;15.13;;;5.55;;
49029;SDS011;43337;52.070;4.508;2024-02-15T11:02:18;8.85;;;4.55;;
49029;SDS011;43337;52.070;4.508;2024-02-15T11:04:48;14.45;;;4.93;;
49029;SDS011;43337;52.070;4.508;2024-02-15T11:07:22;14.90;;;6.00;;
49029;SDS011;43337;52.070;4.508;2024-02-15T11:09:55;11.57;;;4.40;;
49029;SDS011;43337;52.070;4.508;2024-02-15T11:12:22;11.18;;;4.35;;
49029;SDS011;43337;52.070;4.508;2024-02-15T11:14:48;8.73;;;4.20;;
49029;SDS011;43337;52.070;4.508;2024-02-15T11:20:05;9.25;;;4.28;;
49029;SDS011;43337;52.070;4.508;2024-02-15T11:22:35;11.57;;;4.28;;
49029;SDS011;43337;52.070;4.508;2024-02-15T11:25:04;15.63;;;4.28;;
49029;SDS011;43337;52.070;4.508;2024-02-15T11:27:36;12.80;;;4.22;;
49029;SDS011;43337;52.070;4.508;2024-02-15T11:30:03;8.93;;;4.05;;
49029;SDS011;43337;52.070;4.508;2024-02-15T11:32:47;14.35;;;5.05;;
49029;SDS011;43337;52.070;4.508;2024-02-15T11:35:19;9.57;;;4.68;;
49029;SDS011;43337;52.070;4.508;2024-02-15T11:37:49;17.13;;;5.38;;
49029;SDS011;43337;52.070;4.508;2024-02-15T11:40:28;12.13;;;4.72;;
49029;SDS011;43337;52.070;4.508;2024-02-15T11:46:06;9.60;;;5.57;;
49029;SDS011;43337;52.070;4.508;2024-02-15T11:48:35;11.65;;;6.00;;
49029;SDS011;43337;52.070;4.508;2024-02-15T11:51:04;12.48;;;5.05;;
49029;SDS011;43337;52.070;4.508;2024-02-15T11:53:31;14.23;;;6.10;;
49029;SDS011;43337;52.070;4.508;2024-02-15T11:55:59;14.07;;;5.95;;
49029;SDS011;43337;52.070;4.508;2024-02-15T11:58:26;10.32;;;4.22;;
49029;SDS011;43337;52.070;4.508;2024-02-15T12:01:07;15.85;;;5.18;;
49029;SDS011;43337;52.070;4.508;2024-02-15T12:03:54;8.35;;;3.80;;
49029;SDS011;43337;52.070;4.508;2024-02-15T12:06:38;7.80;;;3.40;;
49029;SDS011;43337;52.070;4.508;2024-02-15T12:09:23;8.07;;;3.72;;
49029;SDS011;43337;52.070;4.508;2024-02-15T12:12:09;10.13;;;3.73;;
49029;SDS011;43337;52.070;4.508;2024-02-15T12:15:02;8.05;;;3.40;;
49029;SDS011;43337;52.070;4.508;2024-02-15T12:17:47;9.77;;;3.00;;
49029;SDS011;43337;52.070;4.508;2024-02-15T12:20:31;6.82;;;2.95;;
49029;SDS011;43337;52.070;4.508;2024-02-15T12:22:57;11.18;;;3.50;;
49029;SDS011;43337;52.070;4.508;2024-02-15T12:25:25;7.28;;;3.17;;
49029;SDS011;43337;52.070;4.508;2024-02-15T12:27:52;9.60;;;3.25;;
49029;SDS011;43337;52.070;4.508;2024-02-15T12:30:21;7.25;;;2.72;;
49029;SDS011;43337;52.070;4.508;2024-02-15T12:32:49;7.50;;;2.88;;
49029;SDS011;43337;52.070;4.508;2024-02-15T12:35:18;8.57;;;2.72;;
49029;SDS011;43337;52.070;4.508;2024-02-15T12:37:45;5.85;;;2.35;;
49029;SDS011;43337;52.070;4.508;2024-02-15T12:40:32;7.82;;;2.70;;
49029;SDS011;43337;52.070;4.508;2024-02-15T12:42:59;6.88;;;2.10;;
49029;SDS011;43337;52.070;4.508;2024-02-15T12:45:30;4.68;;;2.05;;
49029;SDS011;43337;52.070;4.508;2024-02-15T12:47:57;7.38;;;1.90;;
49029;SDS011;43337;52.070;4.508;2024-02-15T12:50:23;36.83;;;15.82;;
49029;SDS011;43337;52.070;4.508;2024-02-15T12:52:53;38.85;;;16.40;;
49029;SDS011;43337;52.070;4.508;2024-02-15T12:58:07;13.05;;;4.72;;
49029;SDS011;43337;52.070;4.508;2024-02-15T13:00:39;12.43;;;4.47;;
49029;SDS011;43337;52.070;4.508;2024-02-15T13:03:06;5.25;;;2.05;;
49029;SDS011;43337;52.070;4.508;2024-02-15T13:05:35;4.95;;;1.75;;
49029;SDS011;43337;52.070;4.508;2024-02-15T13:08:04;7.35;;;2.15;;
49029;SDS011;43337;52.070;4.508;2024-02-15T13:10:40;5.50;;;1.77;;
49029;SDS011;43337;52.070;4.508;2024-02-15T13:13:06;4.72;;;1.33;;
49029;SDS011;43337;52.070;4.508;2024-02-15T13:15:31;4.15;;;1.48;;
49029;SDS011;43337;52.070;4.508;2024-02-15T13:17:59;7.00;;;1.55;;
49029;SDS011;43337;52.070;4.508;2024-02-15T13:20:26;6.10;;;1.67;;
49029;SDS011;43337;52.070;4.508;2024-02-15T13:23:02;7.93;;;1.92;;
49029;SDS011;43337;52.070;4.508;2024-02-15T13:25:49;3.55;;;1.17;;
49029;SDS011;43337;52.070;4.508;2024-02-15T13:28:15;5.45;;;1.80;;
49029;SDS011;43337;52.070;4.508;2024-02-15T13:30:41;5.47;;;2.10;;
49029;SDS011;43337;52.070;4.508;2024-02-15T13:33:10;6.82;;;1.70;;
49029;SDS011;43337;52.070;4.508;2024-02-15T13:35:41;5.57;;;2.22;;
49029;SDS011;43337;52.070;4.508;2024-02-15T13:38:07;6.47;;;1.70;;
49029;SDS011;43337;52.070;4.508;2024-02-15T13:40:39;7.90;;;1.73;;
49029;SDS011;43337;52.070;4.508;2024-02-15T13:43:05;3.97;;;1.65;;
49029;SDS011;43337;52.070;4.508;2024-02-15T13:45:38;3.78;;;1.38;;
49029;SDS011;43337;52.070;4.508;2024-02-15T13:48:04;6.38;;;1.77;;
49029;SDS011;43337;52.070;4.508;2024-02-15T13:50:32;4.75;;;1.33;;
49029;SDS011;43337;52.070;4.508;2024-02-15T13:55:38;6.70;;;1.70;;
49029;SDS011;43337;52.070;4.508;2024-02-15T13:58:03;6.82;;;1.98;;
49029;SDS011;43337;52.070;4.508;2024-02-15T14:00:29;8.15;;;2.15;;
49029;SDS011;43337;52.070;4.508;2024-02-15T14:02:55;7.53;;;2.00;;
49029;SDS011;43337;52.070;4.508;2024-02-15T14:05:22;11.15;;;2.15;;
49029;SDS011;43337;52.070;4.508;2024-02-15T14:07:51;6.38;;;1.83;;
49029;SDS011;43337;52.070;4.508;2024-02-15T14:10:24;7.40;;;2.70;;
49029;SDS011;43337;52.070;4.508;2024-02-15T14:12:52;6.35;;;1.77;;
49029;SDS011;43337;52.070;4.508;2024-02-15T14:15:21;5.53;;;1.67;;
49029;SDS011;43337;52.070;4.508;2024-02-15T14:17:47;4.85;;;2.00;;
49029;SDS011;43337;52.070;4.508;2024-02-15T14:20:17;5.85;;;2.30;;
49029;SDS011;43337;52.070;4.508;2024-02-15T14:22:44;7.80;;;2.20;;
49029;SDS011;43337;52.070;4.508;2024-02-15T14:25:15;7.20;;;1.90;;
49029;SDS011;43337;52.070;4.508;2024-02-15T14:27:42;5.90;;;1.95;;
49029;SDS011;43337;52.070;4.508;2024-02-15T14:30:12;7.65;;;2.25;;
49029;SDS011;43337;52.070;4.508;2024-02-15T14:32:57;5.50;;;2.38;;
49029;SDS011;43337;52.070;4.508;2024-02-15T14:35:32;5.55;;;1.85;;
49029;SDS011;43337;52.070;4.508;2024-02-15T14:38:05;4.85;;;1.58;;
49029;SDS011;43337;52.070;4.508;2024-02-15T14:40:34;8.40;;;2.17;;
49029;SDS011;43337;52.070;4.508;2024-02-15T14:43:00;8.23;;;2.10;;
49029;SDS011;43337;52.070;4.508;2024-02-15T14:45:26;10.32;;;2.08;;
49029;SDS011;43337;52.070;4.508;2024-02-15T14:47:52;12.65;;;2.30;;
49029;SDS011;43337;52.070;4.508;2024-02-15T14:50:18;6.18;;;1.70;;
49029;SDS011;43337;52.070;4.508;2024-02-15T14:52:45;8.65;;;1.90;;
49029;SDS011;43337;52.070;4.508;2024-02-15T14:55:11;5.88;;;2.00;;